Alliance, Ohio
Current Conditions -  °F | °C
As of 8:51 PM on Wednesday 22 Oct 2014 (Local Time) from KCAK Reporting Station
Broken Clouds Broken Clouds  
Wind Chill: 45°   Ceiling: 3600
Heat Index: 48°   Visibility: 10mi
Dew Point: 41°   Wind: 6mph
Humidity: 77%   Direction: 350°N
Pressure: 30.22"   Gusts: NA
Location:  40.92°N, 81.1°W
Report Text: KCAK 230051Z 35005KT 10SM BKN036 09/05 A3022 RMK AO2 SLP238 T00890050 $
Loading
Personal Weather Stations






























Interactive Weather Map
Tropical Storm Tracking
New forecast layout! Learn more

10-Day Weather Forecast

Advertisements
Track Severe Weather on mobile